createdAt,value
2022-10-19T03:41:55.743Z,76.57
2022-10-19T03:44:58.675Z,76.57
2022-10-19T03:48:00.971Z,78.73
2022-10-19T03:51:08.611Z,79.46
2022-10-19T03:54:15.965Z,76.16
2022-10-19T03:57:18.578Z,75.80
2022-10-19T04:00:21.210Z,75.36
2022-10-19T04:03:23.868Z,75.43
2022-10-19T04:06:29.399Z,76.52
2022-10-19T04:09:32.176Z,76.39
2022-10-19T04:12:34.511Z,75.80
2022-10-19T04:15:37.037Z,75.92
2022-10-19T04:18:39.431Z,74.42
2022-10-19T04:21:44.135Z,75.37
2022-10-19T04:24:46.464Z,75.07
2022-10-19T04:27:48.987Z,76.29
2022-10-19T04:30:51.381Z,75.10
2022-10-19T04:33:54.493Z,74.15
2022-10-19T04:36:59.381Z,73.86
2022-10-19T04:40:02.308Z,73.46
2022-10-19T04:43:05.434Z,72.55
2022-10-19T04:46:10.345Z,72.44
2022-10-19T04:49:15.208Z,73.12
2022-10-19T04:52:20.505Z,72.93
2022-10-19T04:55:22.852Z,74.32
2022-10-19T04:58:25.591Z,77.13
2022-10-19T05:01:30.777Z,74.91
2022-10-19T05:04:33.352Z,76.46
2022-10-19T05:07:35.870Z,77.65
2022-10-19T05:10:38.881Z,78.16
2022-10-19T05:13:43.197Z,78.11
2022-10-19T05:16:45.726Z,79.52
2022-10-19T05:19:47.953Z,79.47
2022-10-19T05:22:50.978Z,78.33
2022-10-19T05:26:11.383Z,77.35
2022-10-19T05:29:14.658Z,76.94
2022-10-19T05:32:16.906Z,75.85
2022-10-19T05:35:22.332Z,75.17
2022-10-19T05:38:25.209Z,74.78
2022-10-19T05:41:28.315Z,74.73
2022-10-19T05:44:30.722Z,74.70
2022-10-19T05:47:34.472Z,74.63
2022-10-19T05:50:36.964Z,74.45
2022-10-19T05:53:40.334Z,74.62
2022-10-19T05:56:43.365Z,74.41
2022-10-19T05:59:46.011Z,74.12
2022-10-19T06:02:48.229Z,73.97
2022-10-19T06:05:51.738Z,73.67
2022-10-19T06:08:56.301Z,73.40
2022-10-19T06:11:58.802Z,73.10
2022-10-19T06:15:01.060Z,73.16
2022-10-19T06:18:04.579Z,73.22
2022-10-19T06:21:10.528Z,72.86
2022-10-19T06:24:13.374Z,72.69
2022-10-19T06:27:15.687Z,72.74
2022-10-19T06:30:19.080Z,72.58
2022-10-19T06:33:21.288Z,72.32
2022-10-19T06:36:26.958Z,72.11
2022-10-19T06:39:29.238Z,72.02
2022-10-19T06:42:31.891Z,71.93
2022-10-19T06:45:37.051Z,72.49
2022-10-19T06:48:39.593Z,71.51
2022-10-19T06:51:42.211Z,71.80
2022-10-19T06:54:44.981Z,71.50
2022-10-19T06:57:47.323Z,70.70
2022-10-19T07:00:58.672Z,70.52
2022-10-19T07:04:01.234Z,70.30
2022-10-19T07:07:03.980Z,70.14
2022-10-19T07:10:08.625Z,70.20
2022-10-19T07:13:11.440Z,69.23
2022-10-19T07:16:19.663Z,68.62
2022-10-19T07:19:26.658Z,68.05
2022-10-19T07:22:29.006Z,67.88
2022-10-19T07:25:32.224Z,67.22
2022-10-19T07:28:35.395Z,66.55
2022-10-19T07:31:37.922Z,66.13
2022-10-19T07:34:40.168Z,65.94
2022-10-19T07:37:42.739Z,65.53
2022-10-19T07:40:48.365Z,65.58
2022-10-19T07:43:51.918Z,65.39
2022-10-19T07:46:54.161Z,64.84
2022-10-19T07:49:56.681Z,64.75
2022-10-19T07:52:58.954Z,65.06
2022-10-19T07:56:06.437Z,64.62
2022-10-19T07:59:09.977Z,64.08
2022-10-19T08:02:17.140Z,63.57
2022-10-19T08:05:19.808Z,63.55
2022-10-19T08:08:22.185Z,63.60
2022-10-19T08:11:28.678Z,63.19
2022-10-19T08:14:31.655Z,63.38
2022-10-19T08:17:37.655Z,63.09
2022-10-19T08:20:45.362Z,62.58
2022-10-19T08:23:47.889Z,62.76
2022-10-19T08:26:51.410Z,62.71
2022-10-19T08:29:54.037Z,60.56
2022-10-19T08:32:56.271Z,60.03
2022-10-19T08:35:58.761Z,61.09
2022-10-19T08:39:02.647Z,59.99
2022-10-19T08:42:14.285Z,59.04
2022-10-19T08:45:22.213Z,53.38
2022-10-19T08:48:32.929Z,41.13
2022-10-19T08:51:39.888Z,42.55
2022-10-19T08:57:57.896Z,51.65
2022-10-19T09:01:06.335Z,54.76
2022-10-19T09:04:24.433Z,58.41
2022-10-19T09:07:31.083Z,56.86
2022-10-19T09:10:38.949Z,57.70
2022-10-19T09:14:04.329Z,57.69
2022-10-19T09:17:14.594Z,57.57
2022-10-19T09:20:29.398Z,57.61
2022-10-19T09:23:50.263Z,57.13
2022-10-19T09:26:56.337Z,56.24
2022-10-19T09:30:03.728Z,56.08
2022-10-19T09:33:16.377Z,56.03
2022-10-19T09:36:22.928Z,55.41
2022-10-19T09:39:31.167Z,55.00
2022-10-19T09:42:34.722Z,55.34
2022-10-19T09:45:44.978Z,55.03
2022-10-19T09:48:52.778Z,54.48
2022-10-19T09:51:55.954Z,53.91
2022-10-19T09:55:03.558Z,53.74
2022-10-19T09:58:17.679Z,54.13
2022-10-19T10:01:41.704Z,54.30
2022-10-19T10:04:56.739Z,53.28
2022-10-19T10:07:59.316Z,53.84
2022-10-19T10:11:10.517Z,53.60
2022-10-19T10:14:40.369Z,52.79
2022-10-19T10:17:46.297Z,52.84
2022-10-19T10:24:11.729Z,53.75
2022-10-19T10:27:45.239Z,54.11
2022-10-19T10:30:53.395Z,52.14
2022-10-19T10:34:10.789Z,52.88
2022-10-19T10:37:35.496Z,48.65
2022-10-19T10:40:39.253Z,47.15
2022-10-19T10:44:04.911Z,47.31
2022-10-19T10:47:14.931Z,47.15
2022-10-19T10:50:23.387Z,46.86
2022-10-19T10:53:34.883Z,46.16
2022-10-19T10:56:40.724Z,47.16
2022-10-19T11:00:15.823Z,47.30
2022-10-19T11:03:33.653Z,46.49
2022-10-19T11:06:44.743Z,45.87
2022-10-19T11:09:58.279Z,46.21
2022-10-19T11:13:12.741Z,45.56
2022-10-19T11:16:18.440Z,45.89
2022-10-19T11:19:34.030Z,39.32
2022-10-19T11:22:46.889Z,39.36
2022-10-19T11:26:10.618Z,42.26
2022-10-19T11:29:31.958Z,41.83
2022-10-19T11:32:52.691Z,39.92
2022-10-19T11:36:10.701Z,40.60
2022-10-19T11:39:47.317Z,43.05
2022-10-19T11:43:00.661Z,44.19
2022-10-19T11:46:07.285Z,44.84
2022-10-19T11:49:35.022Z,45.30
2022-10-19T11:52:51.416Z,46.07
2022-10-19T11:56:25.158Z,45.75
2022-10-19T12:00:15.388Z,45.50
2022-10-19T12:03:29.057Z,45.29
2022-10-19T12:06:48.775Z,46.04
2022-10-19T12:10:11.257Z,45.46
2022-10-19T12:13:40.642Z,44.63
2022-10-19T12:16:49.680Z,43.28
2022-10-19T12:19:56.563Z,43.37
2022-10-19T12:22:59.809Z,43.29
2022-10-19T12:26:05.938Z,43.20
2022-10-19T12:29:34.298Z,41.03
2022-10-19T12:32:44.723Z,41.65
2022-10-19T12:36:29.289Z,40.32
2022-10-19T12:39:39.103Z,40.25
2022-10-19T12:42:59.482Z,41.28
2022-10-19T12:46:22.232Z,41.69
2022-10-19T12:49:30.829Z,41.29
2022-10-19T12:52:38.360Z,41.66
2022-10-19T12:55:43.545Z,41.72
2022-10-19T12:59:01.296Z,40.46
2022-10-19T13:02:24.349Z,40.98
2022-10-19T13:05:30.373Z,41.53
2022-10-19T13:08:42.473Z,41.39
2022-10-19T13:12:21.393Z,40.12
2022-10-19T13:15:35.367Z,39.85
2022-10-19T13:18:59.549Z,39.93
2022-10-19T13:22:02.131Z,39.34
2022-10-19T13:25:19.469Z,38.21
2022-10-19T13:28:27.812Z,37.89
2022-10-19T13:31:32.967Z,37.55
2022-10-19T13:34:36.203Z,38.16
2022-10-19T13:37:38.553Z,39.13
2022-10-19T13:40:51.104Z,40.15
2022-10-19T13:44:08.610Z,39.78
2022-10-19T13:47:33.496Z,40.47
2022-10-19T13:51:11.495Z,40.79
2022-10-19T13:54:14.093Z,41.41
2022-10-19T13:57:37.758Z,41.06
2022-10-19T14:01:06.246Z,41.81
2022-10-19T14:04:24.003Z,42.48
2022-10-19T14:07:33.437Z,42.74
2022-10-19T14:10:49.447Z,42.48
2022-10-19T14:14:09.417Z,43.19
2022-10-19T14:20:29.438Z,44.39
2022-10-19T14:23:39.988Z,43.98
2022-10-19T14:26:43.326Z,45.36
2022-10-19T14:29:49.820Z,44.62
2022-10-19T14:32:56.766Z,44.80
2022-10-19T14:36:02.585Z,44.50
2022-10-19T14:39:05.710Z,44.16
2022-10-19T14:42:10.796Z,44.47
2022-10-19T14:45:18.026Z,44.41
2022-10-19T14:48:20.765Z,43.98
2022-10-19T14:51:42.241Z,44.09
2022-10-19T14:54:47.995Z,44.16
2022-10-19T14:57:52.871Z,44.07
2022-10-19T15:00:57.543Z,44.48
2022-10-19T15:03:59.886Z,44.25
2022-10-19T15:07:13.433Z,44.50
2022-10-19T15:10:39.501Z,44.63
2022-10-19T15:13:42.894Z,45.37
2022-10-19T15:17:00.653Z,46.02
2022-10-19T15:20:23.802Z,45.55
2022-10-19T15:23:40.822Z,46.03
2022-10-19T15:27:01.729Z,44.78
2022-10-19T15:30:31.631Z,45.16
2022-10-19T15:33:39.632Z,45.28
2022-10-19T15:36:55.532Z,46.18
2022-10-19T15:39:58.258Z,46.66
2022-10-19T15:43:01.061Z,47.15
2022-10-19T15:46:19.846Z,47.21
2022-10-19T15:49:40.519Z,47.25
2022-10-19T15:52:43.180Z,47.52
2022-10-19T15:55:45.658Z,47.96
2022-10-19T15:58:53.369Z,48.16
2022-10-19T16:01:56.388Z,48.20
2022-10-19T16:04:59.539Z,48.71
2022-10-19T16:08:02.235Z,48.63
